Terminal Aerodrome Forecast
Issued by NWS Detroit/Pontiac, MI

Home | Current Version | Previous Version | Text Only | Print | Product List | Glossary On
Versions: 1 2 3 4 5 6 7 8 9 10 11 12 13 14 15 16 17 18 19 20 21 22 23 24 25 26 27 28 29 30 31
000
FTUS43 KDTX 280159 AAA
TAFDTW
TAF AMD
KDTW 280159Z 2802/2906 34005KT P6SM SCT025 OVC035
     FM280400 01005KT P6SM BKN015 OVC030
     FM280700 03006KT 3SM BR OVC008
     FM281500 01010KT P6SM OVC018
     FM281800 01010KT P6SM BKN022
     FM290200 02006KT P6SM FEW025=

USA.gov is the U.S. government's official web portal to all federal, state and local government web resources and services.